SWA1472 KATL-KBWI
Flight info
| Callsign | SWA1472 |
|---|---|
| Flight time | 1h 15m |
| Altitude | 37000 |
| Route | JACCC2 KELLN Q58 PEETT THHMP RAVNN7 |
| Aircraft | B38M/M-SDE1FGHILORVWXY/HB1 |
Departure
| Time | 2026-05-07 23:46 |
|---|---|
| Airport | Hartsfield Jackson Atlanta International Airport (KATL) |
Arrival
| Time | 2026-05-08 01:01 |
|---|---|
| Airport | Baltimore/Washington International Thurgood Marshall Airport (KBWI) |
| Time | Latitude | Longitude | Altitude | Speed | Heading |
|---|---|---|---|---|---|
| 2026-05-07 23:28 | 33.64057 | -84.43316 | 1009 ft | 0 kts | 90° |
| 2026-05-07 23:34 | 33.64057 | -84.43323 | 1009 ft | 2 kts | 90° |
| 2026-05-07 23:34 | 33.64057 | -84.43343 | 1009 ft | 2 kts | 88° |
| 2026-05-07 23:34 | 33.64056 | -84.43363 | 1009 ft | 2 kts | 86° |
| 2026-05-07 23:34 | 33.64055 | -84.43383 | 1009 ft | 2 kts | 85° |
| 2026-05-07 23:35 | 33.64054 | -84.43403 | 1009 ft | 2 kts | 92° |
| 2026-05-07 23:35 | 33.64055 | -84.43412 | 1009 ft | 0 kts | 123° |
| 2026-05-07 23:37 | 33.64052 | -84.43409 | 1009 ft | 1 kts | 135° |
| 2026-05-07 23:37 | 33.64044 | -84.43400 | 1009 ft | 1 kts | 149° |
| 2026-05-07 23:37 | 33.64036 | -84.43398 | 1009 ft | 3 kts | 165° |
| 2026-05-07 23:38 | 33.64006 | -84.43394 | 1009 ft | 6 kts | 179° |
| 2026-05-07 23:38 | 33.63945 | -84.43392 | 1009 ft | 11 kts | 179° |
| 2026-05-07 23:38 | 33.63847 | -84.43391 | 1009 ft | 17 kts | 180° |
| 2026-05-07 23:38 | 33.63755 | -84.43391 | 1008 ft | 6 kts | 180° |
| 2026-05-07 23:39 | 33.63712 | -84.43389 | 1008 ft | 8 kts | 171° |
| 2026-05-07 23:39 | 33.63667 | -84.43332 | 1008 ft | 12 kts | 106° |
| 2026-05-07 23:39 | 33.63665 | -84.43218 | 1008 ft | 16 kts | 91° |
| 2026-05-07 23:39 | 33.63665 | -84.43065 | 1008 ft | 21 kts | 89° |
| 2026-05-07 23:40 | 33.63664 | -84.42873 | 1008 ft | 25 kts | 90° |
| 2026-05-07 23:40 | 33.63656 | -84.42647 | 1009 ft | 29 kts | 92° |
| 2026-05-07 23:40 | 33.63656 | -84.42391 | 1009 ft | 33 kts | 89° |
| 2026-05-07 23:40 | 33.63656 | -84.42103 | 1009 ft | 36 kts | 90° |
| 2026-05-07 23:41 | 33.63655 | -84.41872 | 1009 ft | 24 kts | 90° |
| 2026-05-07 23:41 | 33.63655 | -84.41678 | 1009 ft | 23 kts | 89° |
| 2026-05-07 23:41 | 33.63655 | -84.41491 | 1008 ft | 22 kts | 90° |
| 2026-05-07 23:41 | 33.63655 | -84.41309 | 1008 ft | 23 kts | 89° |
| 2026-05-07 23:42 | 33.63656 | -84.41115 | 1009 ft | 24 kts | 91° |
| 2026-05-07 23:42 | 33.63642 | -84.40926 | 1009 ft | 16 kts | 128° |
| 2026-05-07 23:42 | 33.63586 | -84.40909 | 1009 ft | 3 kts | 178° |
| 2026-05-07 23:42 | 33.63565 | -84.40908 | 1009 ft | 0 kts | 178° |
| 2026-05-07 23:45 | 33.63563 | -84.40908 | 1009 ft | 2 kts | 178° |
| 2026-05-07 23:45 | 33.63507 | -84.40914 | 1009 ft | 14 kts | 205° |
| 2026-05-07 23:45 | 33.63473 | -84.41174 | 1008 ft | 63 kts | 270° |
| 2026-05-07 23:45 | 33.63471 | -84.41944 | 1009 ft | 119 kts | 270° |
| 2026-05-07 23:46 | 33.63471 | -84.43125 | 1008 ft | 162 kts | 267° |
| 2026-05-07 23:46 | 33.63473 | -84.44513 | 1484 ft | 164 kts | 276° |
| 2026-05-07 23:46 | 33.63489 | -84.45911 | 2033 ft | 175 kts | 269° |
| 2026-05-07 23:46 | 33.63281 | -84.47396 | 2551 ft | 188 kts | 258° |
| 2026-05-07 23:47 | 33.62797 | -84.48918 | 3025 ft | 206 kts | 248° |
| 2026-05-07 23:47 | 33.62118 | -84.50547 | 3384 ft | 231 kts | 246° |
| 2026-05-07 23:47 | 33.61372 | -84.52325 | 4095 ft | 237 kts | 246° |
| 2026-05-07 23:47 | 33.60617 | -84.54141 | 4781 ft | 252 kts | 245° |
| 2026-05-07 23:48 | 33.59812 | -84.56043 | 5605 ft | 254 kts | 242° |
| 2026-05-07 23:48 | 33.58610 | -84.57589 | 6598 ft | 260 kts | 218° |
| 2026-05-07 23:48 | 33.56890 | -84.58379 | 7435 ft | 274 kts | 195° |
| 2026-05-07 23:48 | 33.54941 | -84.58439 | 8237 ft | 283 kts | 187° |
| 2026-05-07 23:49 | 33.52955 | -84.58446 | 8994 ft | 287 kts | 188° |
| 2026-05-07 23:49 | 33.50950 | -84.58451 | 9838 ft | 289 kts | 188° |
| 2026-05-07 23:49 | 33.48897 | -84.58091 | 10380 ft | 317 kts | 168° |
| 2026-05-07 23:49 | 33.46933 | -84.56620 | 10690 ft | 354 kts | 140° |
| 2026-05-07 23:50 | 33.45587 | -84.54027 | 11038 ft | 383 kts | 109° |
| 2026-05-07 23:50 | 33.45296 | -84.50817 | 11503 ft | 396 kts | 84° |
| 2026-05-07 23:50 | 33.45497 | -84.47480 | 11967 ft | 408 kts | 86° |
| 2026-05-07 23:50 | 33.45564 | -84.44096 | 12618 ft | 415 kts | 88° |
| 2026-05-07 23:51 | 33.45589 | -84.40553 | 13293 ft | 424 kts | 88° |
| 2026-05-07 23:51 | 33.45594 | -84.36994 | 13924 ft | 431 kts | 87° |
| 2026-05-07 23:51 | 33.46021 | -84.33494 | 14506 ft | 430 kts | 67° |
| 2026-05-07 23:51 | 33.47205 | -84.30250 | 15152 ft | 428 kts | 56° |
| 2026-05-07 23:52 | 33.48600 | -84.27008 | 14873 ft | 454 kts | 56° |
| 2026-05-07 23:52 | 33.50162 | -84.23497 | 11556 ft | 480 kts | 57° |
| 2026-05-07 23:52 | 33.51762 | -84.20075 | 8833 ft | 457 kts | 57° |
| 2026-05-07 23:52 | 33.53224 | -84.17083 | 10288 ft | 380 kts | 55° |
| 2026-05-07 23:53 | 33.54534 | -84.14355 | 11246 ft | 383 kts | 56° |
| 2026-05-07 23:53 | 33.55760 | -84.11443 | 11737 ft | 396 kts | 60° |
| 2026-05-07 23:53 | 33.56961 | -84.08441 | 12448 ft | 404 kts | 57° |
| 2026-05-07 23:53 | 33.58244 | -84.05411 | 13210 ft | 410 kts | 56° |
| 2026-05-07 23:54 | 33.59571 | -84.02346 | 13965 ft | 416 kts | 55° |
| 2026-05-07 23:54 | 33.60928 | -83.99255 | 14773 ft | 423 kts | 55° |
| 2026-05-07 23:54 | 33.62317 | -83.96111 | 15541 ft | 431 kts | 56° |
| 2026-05-07 23:54 | 33.63740 | -83.92899 | 16322 ft | 437 kts | 56° |
| 2026-05-07 23:55 | 33.65178 | -83.89654 | 17070 ft | 445 kts | 56° |
| 2026-05-07 23:55 | 33.66641 | -83.86349 | 17812 ft | 452 kts | 56° |
| 2026-05-07 23:55 | 33.68132 | -83.82979 | 18487 ft | 459 kts | 56° |
| 2026-05-07 23:55 | 33.69615 | -83.79622 | 19120 ft | 463 kts | 56° |
| 2026-05-07 23:56 | 33.71131 | -83.76190 | 19791 ft | 467 kts | 56° |
| 2026-05-07 23:56 | 33.72678 | -83.72681 | 20432 ft | 471 kts | 56° |
| 2026-05-07 23:56 | 33.74199 | -83.69232 | 21043 ft | 475 kts | 56° |
| 2026-05-07 23:56 | 33.75764 | -83.65717 | 21628 ft | 477 kts | 52° |
| 2026-05-07 23:57 | 33.77573 | -83.62380 | 22115 ft | 478 kts | 49° |
| 2026-05-07 23:57 | 33.79409 | -83.59021 | 22640 ft | 482 kts | 49° |
| 2026-05-07 23:57 | 33.81240 | -83.55622 | 23152 ft | 485 kts | 50° |
| 2026-05-07 23:57 | 33.83068 | -83.52200 | 23643 ft | 489 kts | 50° |
| 2026-05-07 23:58 | 33.84909 | -83.48743 | 24043 ft | 492 kts | 50° |
| 2026-05-07 23:58 | 33.86757 | -83.45269 | 24443 ft | 496 kts | 50° |
| 2026-05-07 23:58 | 33.88626 | -83.41753 | 24851 ft | 499 kts | 50° |
| 2026-05-07 23:58 | 33.90498 | -83.38226 | 25275 ft | 502 kts | 50° |
| 2026-05-07 23:59 | 33.92387 | -83.34665 | 25651 ft | 506 kts | 50° |
| 2026-05-07 23:59 | 33.94267 | -83.31117 | 26031 ft | 509 kts | 50° |
| 2026-05-07 23:59 | 33.96180 | -83.27502 | 26392 ft | 513 kts | 50° |
| 2026-05-07 23:59 | 33.98108 | -83.23856 | 26777 ft | 516 kts | 50° |
| 2026-05-08 00:00 | 34.00042 | -83.20195 | 27144 ft | 520 kts | 51° |
| 2026-05-08 00:00 | 34.01984 | -83.16514 | 27505 ft | 523 kts | 51° |
| 2026-05-08 00:00 | 34.03941 | -83.12801 | 27861 ft | 526 kts | 51° |
| 2026-05-08 00:00 | 34.05910 | -83.09061 | 28197 ft | 530 kts | 51° |
| 2026-05-08 00:01 | 34.07892 | -83.05295 | 28535 ft | 533 kts | 51° |
| 2026-05-08 00:01 | 34.09881 | -83.01511 | 28886 ft | 536 kts | 51° |
| 2026-05-08 00:01 | 34.11887 | -82.97690 | 29218 ft | 539 kts | 51° |
| 2026-05-08 00:01 | 34.13899 | -82.93843 | 29552 ft | 543 kts | 51° |
| 2026-05-08 00:02 | 34.15919 | -82.89979 | 29878 ft | 546 kts | 51° |
| 2026-05-08 00:02 | 34.17952 | -82.86088 | 30171 ft | 549 kts | 51° |
| 2026-05-08 00:02 | 34.19991 | -82.82181 | 30455 ft | 552 kts | 51° |
| 2026-05-08 00:02 | 34.22042 | -82.78245 | 30769 ft | 554 kts | 51° |
| 2026-05-08 00:03 | 34.24101 | -82.74291 | 31056 ft | 557 kts | 51° |
| 2026-05-08 00:03 | 34.26167 | -82.70320 | 31335 ft | 559 kts | 51° |
| 2026-05-08 00:03 | 34.28215 | -82.66378 | 31592 ft | 562 kts | 51° |
| 2026-05-08 00:03 | 34.30296 | -82.62367 | 31880 ft | 564 kts | 51° |
| 2026-05-08 00:04 | 34.32385 | -82.58337 | 32164 ft | 567 kts | 51° |
| 2026-05-08 00:04 | 34.34482 | -82.54287 | 32489 ft | 568 kts | 51° |
| 2026-05-08 00:04 | 34.36571 | -82.50247 | 32884 ft | 567 kts | 51° |
| 2026-05-08 00:04 | 34.38665 | -82.46194 | 33291 ft | 567 kts | 51° |
| 2026-05-08 00:05 | 34.40753 | -82.42149 | 33693 ft | 566 kts | 51° |
| 2026-05-08 00:05 | 34.42836 | -82.38106 | 34049 ft | 566 kts | 51° |
| 2026-05-08 00:05 | 34.44842 | -82.33993 | 34370 ft | 569 kts | 55° |
| 2026-05-08 00:05 | 34.46752 | -82.29801 | 34694 ft | 568 kts | 55° |
| 2026-05-08 00:06 | 34.48684 | -82.25612 | 35005 ft | 567 kts | 54° |
| 2026-05-08 00:06 | 34.50615 | -82.21443 | 35300 ft | 567 kts | 54° |
| 2026-05-08 00:06 | 34.52591 | -82.17316 | 35592 ft | 563 kts | 50° |
| 2026-05-08 00:06 | 34.54722 | -82.13333 | 35868 ft | 563 kts | 50° |
| 2026-05-08 00:07 | 34.56839 | -82.09326 | 36150 ft | 563 kts | 50° |
| 2026-05-08 00:07 | 34.58939 | -82.05308 | 36418 ft | 564 kts | 51° |
| 2026-05-08 00:07 | 34.61037 | -82.01281 | 36683 ft | 564 kts | 51° |
| 2026-05-08 00:07 | 34.63130 | -81.97256 | 36905 ft | 564 kts | 51° |
| 2026-05-08 00:08 | 34.67317 | -81.89197 | 36913 ft | 562 kts | 51° |
| 2026-05-08 00:08 | 34.71487 | -81.81152 | 36902 ft | 563 kts | 51° |
| 2026-05-08 00:09 | 34.75658 | -81.73085 | 36894 ft | 563 kts | 51° |
| 2026-05-08 00:09 | 34.79796 | -81.65066 | 36887 ft | 563 kts | 51° |
| 2026-05-08 00:10 | 34.83956 | -81.56983 | 36873 ft | 563 kts | 51° |
| 2026-05-08 00:10 | 34.88111 | -81.48896 | 36885 ft | 564 kts | 51° |
| 2026-05-08 00:11 | 34.92266 | -81.40787 | 36888 ft | 564 kts | 51° |
| 2026-05-08 00:11 | 34.96416 | -81.32668 | 36891 ft | 564 kts | 51° |
| 2026-05-08 00:12 | 35.00557 | -81.24551 | 36908 ft | 564 kts | 51° |
| 2026-05-08 00:12 | 35.04704 | -81.16401 | 36928 ft | 565 kts | 51° |
| 2026-05-08 00:13 | 35.08825 | -81.08283 | 36931 ft | 565 kts | 51° |
| 2026-05-08 00:13 | 35.12961 | -81.00116 | 36952 ft | 566 kts | 51° |
| 2026-05-08 00:14 | 35.17097 | -80.91931 | 36946 ft | 566 kts | 51° |
| 2026-05-08 00:14 | 35.21235 | -80.83725 | 36948 ft | 567 kts | 51° |
| 2026-05-08 00:15 | 35.25369 | -80.75504 | 36930 ft | 567 kts | 51° |
| 2026-05-08 00:15 | 35.29499 | -80.67273 | 36937 ft | 567 kts | 51° |
| 2026-05-08 00:16 | 35.33626 | -80.59027 | 36935 ft | 567 kts | 51° |
| 2026-05-08 00:16 | 35.37747 | -80.50775 | 36923 ft | 568 kts | 51° |
| 2026-05-08 00:17 | 35.41840 | -80.42559 | 36932 ft | 569 kts | 51° |
| 2026-05-08 00:17 | 35.44561 | -80.37092 | 36945 ft | 569 kts | 51° |
| 2026-05-08 00:18 | 35.47561 | -80.31051 | 36951 ft | 569 kts | 51° |
| 2026-05-08 00:18 | 35.51833 | -80.22929 | 36961 ft | 562 kts | 45° |
| 2026-05-08 00:19 | 35.55605 | -80.16415 | 36958 ft | 564 kts | 46° |
| 2026-05-08 00:19 | 35.60084 | -80.08530 | 36957 ft | 565 kts | 46° |
| 2026-05-08 00:20 | 35.64564 | -80.00612 | 36959 ft | 565 kts | 46° |
| 2026-05-08 00:20 | 35.69056 | -79.92656 | 36974 ft | 565 kts | 46° |
| 2026-05-08 00:21 | 35.73541 | -79.84696 | 36966 ft | 565 kts | 46° |
| 2026-05-08 00:21 | 35.78048 | -79.76741 | 36950 ft | 566 kts | 46° |
| 2026-05-08 00:22 | 35.82544 | -79.68782 | 36946 ft | 566 kts | 46° |
| 2026-05-08 00:22 | 35.87047 | -79.60794 | 36948 ft | 567 kts | 46° |
| 2026-05-08 00:23 | 35.91518 | -79.52844 | 36935 ft | 567 kts | 46° |
| 2026-05-08 00:23 | 35.96006 | -79.44847 | 36936 ft | 568 kts | 46° |
| 2026-05-08 00:24 | 36.00498 | -79.36823 | 36941 ft | 568 kts | 46° |
| 2026-05-08 00:24 | 36.04990 | -79.28779 | 36939 ft | 568 kts | 46° |
| 2026-05-08 00:25 | 36.09473 | -79.20733 | 36936 ft | 569 kts | 46° |
| 2026-05-08 00:25 | 36.13956 | -79.12672 | 36962 ft | 569 kts | 46° |
| 2026-05-08 00:26 | 36.18445 | -79.04582 | 36975 ft | 569 kts | 46° |
| 2026-05-08 00:26 | 36.22934 | -78.96476 | 36978 ft | 570 kts | 46° |
| 2026-05-08 00:27 | 36.27413 | -78.88369 | 36969 ft | 570 kts | 46° |
| 2026-05-08 00:27 | 36.31864 | -78.80295 | 36967 ft | 570 kts | 46° |
| 2026-05-08 00:28 | 36.36339 | -78.72156 | 36952 ft | 571 kts | 46° |
| 2026-05-08 00:28 | 36.40808 | -78.64010 | 36958 ft | 571 kts | 46° |
| 2026-05-08 00:29 | 36.45483 | -78.56143 | 36931 ft | 550 kts | 32° |
| 2026-05-08 00:29 | 36.50996 | -78.49604 | 36932 ft | 549 kts | 32° |
| 2026-05-08 00:30 | 36.56526 | -78.43067 | 36942 ft | 548 kts | 31° |
| 2026-05-08 00:30 | 36.62055 | -78.36542 | 36946 ft | 548 kts | 31° |
| 2026-05-08 00:31 | 36.67588 | -78.29998 | 36947 ft | 548 kts | 31° |
| 2026-05-08 00:31 | 36.73125 | -78.23435 | 36988 ft | 549 kts | 31° |
| 2026-05-08 00:32 | 36.78653 | -78.16870 | 36988 ft | 549 kts | 32° |
| 2026-05-08 00:32 | 36.84180 | -78.10292 | 36983 ft | 549 kts | 32° |
| 2026-05-08 00:33 | 36.89675 | -78.03739 | 36942 ft | 549 kts | 32° |
| 2026-05-08 00:33 | 36.95196 | -77.97140 | 36931 ft | 549 kts | 32° |
| 2026-05-08 00:34 | 37.00709 | -77.90537 | 36943 ft | 549 kts | 32° |
| 2026-05-08 00:34 | 37.06233 | -77.83908 | 36942 ft | 549 kts | 32° |
| 2026-05-08 00:35 | 37.11740 | -77.77283 | 36943 ft | 549 kts | 32° |
| 2026-05-08 00:35 | 37.17242 | -77.70652 | 36953 ft | 548 kts | 32° |
| 2026-05-08 00:36 | 37.22732 | -77.64021 | 36956 ft | 548 kts | 32° |
| 2026-05-08 00:36 | 37.28224 | -77.57372 | 36956 ft | 548 kts | 32° |
| 2026-05-08 00:37 | 37.33609 | -77.50833 | 36952 ft | 528 kts | 32° |
| 2026-05-08 00:37 | 37.36204 | -77.47679 | 36912 ft | 513 kts | 32° |
| 2026-05-08 00:38 | 37.41292 | -77.41499 | 35905 ft | 509 kts | 31° |
| 2026-05-08 00:38 | 37.43860 | -77.38374 | 35138 ft | 515 kts | 31° |
| 2026-05-08 00:38 | 37.46516 | -77.35384 | 34387 ft | 506 kts | 22° |
| 2026-05-08 00:38 | 37.49414 | -77.32938 | 33634 ft | 491 kts | 12° |
| 2026-05-08 00:39 | 37.52469 | -77.31427 | 32844 ft | 458 kts | 357° |
| 2026-05-08 00:39 | 37.55559 | -77.30537 | 32171 ft | 455 kts | 356° |
| 2026-05-08 00:39 | 37.58646 | -77.29712 | 31517 ft | 453 kts | 356° |
| 2026-05-08 00:39 | 37.61739 | -77.28927 | 30882 ft | 453 kts | 356° |
| 2026-05-08 00:40 | 37.64836 | -77.28162 | 30268 ft | 452 kts | 356° |
| 2026-05-08 00:40 | 37.67918 | -77.27415 | 29641 ft | 451 kts | 357° |
| 2026-05-08 00:40 | 37.70994 | -77.26662 | 28983 ft | 450 kts | 358° |
| 2026-05-08 00:40 | 37.74066 | -77.25867 | 28340 ft | 449 kts | 358° |
| 2026-05-08 00:41 | 37.77121 | -77.25077 | 27705 ft | 448 kts | 359° |
| 2026-05-08 00:41 | 37.80178 | -77.24289 | 27086 ft | 447 kts | 359° |
| 2026-05-08 00:41 | 37.83221 | -77.23503 | 26486 ft | 446 kts | 359° |
| 2026-05-08 00:41 | 37.86251 | -77.22721 | 26016 ft | 441 kts | 359° |
| 2026-05-08 00:42 | 37.89201 | -77.21959 | 25627 ft | 435 kts | 359° |
| 2026-05-08 00:42 | 37.92152 | -77.21192 | 25257 ft | 430 kts | 359° |
| 2026-05-08 00:42 | 37.95064 | -77.20435 | 24884 ft | 424 kts | 359° |
| 2026-05-08 00:42 | 37.97957 | -77.19682 | 24509 ft | 423 kts | 360° |
| 2026-05-08 00:43 | 38.00833 | -77.18933 | 24147 ft | 422 kts | 360° |
| 2026-05-08 00:43 | 38.03713 | -77.18183 | 23790 ft | 421 kts | 0° |
| 2026-05-08 00:43 | 38.06566 | -77.17438 | 23414 ft | 419 kts | 0° |
| 2026-05-08 00:43 | 38.09421 | -77.16692 | 22979 ft | 417 kts | 0° |
| 2026-05-08 00:44 | 38.12254 | -77.15951 | 22562 ft | 414 kts | 0° |
| 2026-05-08 00:44 | 38.15068 | -77.15216 | 22144 ft | 411 kts | 1° |
| 2026-05-08 00:44 | 38.17863 | -77.14484 | 21740 ft | 409 kts | 1° |
| 2026-05-08 00:44 | 38.20641 | -77.13756 | 21329 ft | 406 kts | 1° |
| 2026-05-08 00:45 | 38.23403 | -77.13032 | 20914 ft | 403 kts | 1° |
| 2026-05-08 00:45 | 38.26141 | -77.12314 | 20534 ft | 401 kts | 1° |
| 2026-05-08 00:45 | 38.28863 | -77.11599 | 20140 ft | 398 kts | 2° |
| 2026-05-08 00:45 | 38.31572 | -77.10887 | 19757 ft | 396 kts | 2° |
| 2026-05-08 00:46 | 38.34255 | -77.10181 | 19379 ft | 393 kts | 2° |
| 2026-05-08 00:46 | 38.36849 | -77.09094 | 18993 ft | 405 kts | 19° |
| 2026-05-08 00:46 | 38.39252 | -77.07142 | 18615 ft | 410 kts | 27° |
| 2026-05-08 00:46 | 38.41597 | -77.05092 | 18234 ft | 408 kts | 28° |
| 2026-05-08 00:47 | 38.43930 | -77.03032 | 17790 ft | 406 kts | 28° |
| 2026-05-08 00:47 | 38.46247 | -77.00974 | 17354 ft | 405 kts | 28° |
| 2026-05-08 00:47 | 38.48552 | -76.98923 | 16921 ft | 403 kts | 28° |
| 2026-05-08 00:47 | 38.50846 | -76.96878 | 16485 ft | 401 kts | 28° |
| 2026-05-08 00:48 | 38.53131 | -76.94838 | 16046 ft | 400 kts | 29° |
| 2026-05-08 00:48 | 38.55361 | -76.92717 | 15618 ft | 403 kts | 37° |
| 2026-05-08 00:48 | 38.57380 | -76.90235 | 15216 ft | 402 kts | 39° |
| 2026-05-08 00:48 | 38.59402 | -76.87790 | 14811 ft | 400 kts | 38° |
| 2026-05-08 00:49 | 38.61434 | -76.85361 | 14401 ft | 398 kts | 38° |
| 2026-05-08 00:49 | 38.63463 | -76.82950 | 13997 ft | 397 kts | 38° |
| 2026-05-08 00:49 | 38.65481 | -76.80559 | 13583 ft | 396 kts | 38° |
| 2026-05-08 00:49 | 38.67504 | -76.78165 | 13052 ft | 396 kts | 38° |
| 2026-05-08 00:50 | 38.69511 | -76.75787 | 12317 ft | 390 kts | 38° |
| 2026-05-08 00:50 | 38.71255 | -76.73143 | 11595 ft | 392 kts | 57° |
| 2026-05-08 00:50 | 38.72517 | -76.70119 | 10925 ft | 386 kts | 58° |
| 2026-05-08 00:50 | 38.73817 | -76.67087 | 10237 ft | 380 kts | 58° |
| 2026-05-08 00:51 | 38.75080 | -76.64168 | 9889 ft | 365 kts | 57° |
| 2026-05-08 00:51 | 38.76269 | -76.61426 | 9893 ft | 340 kts | 57° |
| 2026-05-08 00:51 | 38.77551 | -76.59051 | 9893 ft | 309 kts | 37° |
| 2026-05-08 00:51 | 38.79265 | -76.57667 | 9903 ft | 287 kts | 11° |
| 2026-05-08 00:52 | 38.81149 | -76.57027 | 9787 ft | 277 kts | 5° |
| 2026-05-08 00:52 | 38.83043 | -76.56453 | 9259 ft | 276 kts | 5° |
| 2026-05-08 00:52 | 38.84892 | -76.56106 | 8715 ft | 265 kts | 349° |
| 2026-05-08 00:52 | 38.86669 | -76.56497 | 8233 ft | 257 kts | 343° |
| 2026-05-08 00:53 | 38.88446 | -76.56933 | 7755 ft | 263 kts | 344° |
| 2026-05-08 00:53 | 38.90259 | -76.57388 | 7273 ft | 268 kts | 345° |
| 2026-05-08 00:53 | 38.92106 | -76.57864 | 6805 ft | 273 kts | 346° |
| 2026-05-08 00:53 | 38.93977 | -76.58353 | 6334 ft | 277 kts | 347° |
| 2026-05-08 00:54 | 38.95873 | -76.58893 | 5834 ft | 280 kts | 340° |
| 2026-05-08 00:54 | 38.97463 | -76.60228 | 5314 ft | 273 kts | 310° |
| 2026-05-08 00:54 | 38.98426 | -76.62297 | 4845 ft | 267 kts | 300° |
| 2026-05-08 00:54 | 38.99329 | -76.64366 | 4351 ft | 263 kts | 300° |
| 2026-05-08 00:55 | 39.00211 | -76.66357 | 4123 ft | 249 kts | 300° |
| 2026-05-08 00:55 | 39.01032 | -76.68204 | 4121 ft | 228 kts | 300° |
| 2026-05-08 00:55 | 39.01811 | -76.69953 | 4099 ft | 225 kts | 300° |
| 2026-05-08 00:55 | 39.02589 | -76.71696 | 4067 ft | 222 kts | 300° |
| 2026-05-08 00:56 | 39.03346 | -76.73393 | 4064 ft | 216 kts | 300° |
| 2026-05-08 00:56 | 39.04086 | -76.75053 | 4058 ft | 213 kts | 300° |
| 2026-05-08 00:56 | 39.04822 | -76.76708 | 4048 ft | 213 kts | 300° |
| 2026-05-08 00:56 | 39.05561 | -76.78354 | 3998 ft | 211 kts | 302° |
| 2026-05-08 00:57 | 39.06456 | -76.79852 | 3721 ft | 209 kts | 314° |
| 2026-05-08 00:57 | 39.07571 | -76.81032 | 3326 ft | 210 kts | 327° |
| 2026-05-08 00:57 | 39.08888 | -76.81816 | 3030 ft | 205 kts | 341° |
| 2026-05-08 00:57 | 39.10197 | -76.82165 | 3037 ft | 177 kts | 350° |
| 2026-05-08 00:58 | 39.11368 | -76.82376 | 3021 ft | 166 kts | 350° |
| 2026-05-08 00:58 | 39.12500 | -76.82488 | 3014 ft | 164 kts | 7° |
| 2026-05-08 00:58 | 39.13447 | -76.81784 | 2776 ft | 155 kts | 38° |
| 2026-05-08 00:58 | 39.14274 | -76.80859 | 2268 ft | 159 kts | 39° |
| 2026-05-08 00:59 | 39.15122 | -76.79933 | 1958 ft | 161 kts | 39° |
| 2026-05-08 00:59 | 39.15989 | -76.78992 | 1920 ft | 162 kts | 39° |
| 2026-05-08 00:59 | 39.16844 | -76.78074 | 1627 ft | 161 kts | 39° |
| 2026-05-08 00:59 | 39.17464 | -76.76907 | 1444 ft | 161 kts | 79° |
| 2026-05-08 01:00 | 39.17592 | -76.75499 | 1218 ft | 160 kts | 87° |
| 2026-05-08 01:00 | 39.17680 | -76.74078 | 1024 ft | 158 kts | 89° |
| 2026-05-08 01:00 | 39.17680 | -76.72683 | 850 ft | 156 kts | 94° |
| 2026-05-08 01:00 | 39.17628 | -76.71294 | 643 ft | 155 kts | 98° |
| 2026-05-08 01:01 | 39.17540 | -76.69922 | 382 ft | 151 kts | 96° |
| 2026-05-08 01:01 | 39.17458 | -76.68588 | 170 ft | 148 kts | 97° |
| 2026-05-08 01:01 | 39.17389 | -76.67437 | 151 ft | 100 kts | 94° |
| 2026-05-08 01:01 | 39.17349 | -76.66781 | 156 ft | 35 kts | 92° |
| 2026-05-08 01:02 | 39.17383 | -76.66595 | 156 ft | 14 kts | 21° |
| 2026-05-08 01:02 | 39.17403 | -76.66591 | 156 ft | 1 kts | 1° |
| 2026-05-08 01:02 | 39.17411 | -76.66591 | 156 ft | 1 kts | 351° |
| 2026-05-08 01:02 | 39.17419 | -76.66595 | 156 ft | 2 kts | 337° |
| 2026-05-08 01:03 | 39.17427 | -76.66602 | 156 ft | 3 kts | 329° |
| 2026-05-08 01:03 | 39.17442 | -76.66645 | 156 ft | 10 kts | 279° |
| 2026-05-08 01:03 | 39.17461 | -76.66789 | 156 ft | 21 kts | 294° |
| 2026-05-08 01:03 | 39.17493 | -76.66832 | 157 ft | 0 kts | 328° |
| 2026-05-08 01:04 | 39.17512 | -76.66852 | 158 ft | 9 kts | 313° |
| 2026-05-08 01:04 | 39.17548 | -76.66967 | 158 ft | 19 kts | 288° |
| 2026-05-08 01:04 | 39.17639 | -76.67094 | 158 ft | 20 kts | 324° |
| 2026-05-08 01:05 | 39.17763 | -76.67205 | 156 ft | 23 kts | 326° |
| 2026-05-08 01:05 | 39.17841 | -76.67272 | 154 ft | 0 kts | 327° |
| 2026-05-08 01:05 | 39.17848 | -76.67278 | 154 ft | 4 kts | 327° |
| 2026-05-08 01:05 | 39.17883 | -76.67284 | 154 ft | 4 kts | 34° |
| 2026-05-08 01:06 | 39.17894 | -76.67267 | 155 ft | 2 kts | 59° |
| 2026-05-08 01:06 | 39.17900 | -76.67254 | 156 ft | 2 kts | 59° |
| 2026-05-08 01:06 | 39.17907 | -76.67240 | 157 ft | 1 kts | 58° |
| 2026-05-08 01:06 | 39.17909 | -76.67236 | 158 ft | 2 kts | 58° |
| 2026-05-08 01:07 | 39.17912 | -76.67230 | 158 ft | 2 kts | 58° |
| 2026-05-08 01:07 | 39.17919 | -76.67215 | 159 ft | 0 kts | 58° |